Home > Products > Valid Products > TAF

000
FTUS44 KJAN 201600 AAB
TAFHBG
TAF AMD
KHBG 201620Z 2016/2112 02006KT P6SM OVC009
     FM201800 02005KT P6SM SCT030 OVC050
     FM210700 02003KT P6SM OVC015
     FM211100 02003KT P6SM OVC003=



000
FTUS44 KJAN 201400 AAA
TAFHBG
TAF AMD
KHBG 201432Z 2015/2112 02006KT P6SM OVC007
     FM201600 02006KT P6SM BKN015 OVC025
     FM201800 02005KT P6SM SCT030 OVC050
     FM210700 02003KT P6SM OVC015
     FM211100 02003KT P6SM OVC003=



000
FTUS44 KJAN 201400 AAA
TAFJAN
TAF AMD
KJAN 201430Z 2015/2112 04007KT P6SM BKN005
     FM201700 02007KT P6SM BKN050
     FM211000 07003KT P6SM OVC015=



000
FTUS44 KJAN 201100
TAFJAN
TAF
KJAN 201131Z 2012/2112 05006KT P6SM BKN009
     FM201400 04007KT P6SM SCT020
     FM201700 02007KT P6SM BKN050
     FM211000 07003KT P6SM OVC015=



000
FTUS44 KJAN 201100
TAFMEI
TAF
KMEI 201131Z 2012/2112 03007KT P6SM VCSH OVC007
     FM201500 03006KT P6SM BKN015 OVC030
     FM201800 02006KT P6SM SCT030 BKN050
     FM210900 02004KT P6SM OVC015
     FM211100 02003KT P6SM OVC007=



000
FTUS44 KJAN 201100
TAFHBG
TAF
KHBG 201131Z 2012/2112 02006KT 6SM BR VCSH BKN008 OVC015
     FM201500 02006KT P6SM BKN015 OVC025
     FM201800 02005KT P6SM SCT030 OVC050
     FM210700 02003KT P6SM OVC015
     FM211100 02003KT P6SM OVC003=



000
FTUS44 KJAN 201100
TAFGLH
TAF
KGLH 201131Z 2012/2112 02005KT 5SM BR FEW050
     FM201400 03007KT P6SM BKN050=



000
FTUS44 KJAN 201100
TAFGWO
TAF
KGWO 201131Z 2012/2112 05003KT 5SM BR FEW090
     FM201400 04005KT P6SM BKN050=



000
FTUS44 KJAN 200500
TAFMEI
TAF
KMEI 200529Z 2006/2106 03004KT P6SM -RA OVC007
     FM201000 03007KT 5SM BR VCSH OVC003
     FM201500 03006KT P6SM BKN015 OVC030
     FM202100 02006KT P6SM SCT030 BKN050=



000
FTUS44 KJAN 200500
TAFJAN
TAF
KJAN 200529Z 2006/2106 05006KT P6SM VCSH BKN015 OVC035
     FM201000 01005KT 5SM BR BKN003 OVC015
     FM201400 02007KT P6SM BKN007 OVC025
     FM201700 02007KT P6SM BKN015 OVC040
     FM201900 02008KT P6SM SCT030 BKN050=



000
FTUS44 KJAN 200500
TAFGWO
TAF
KGWO 200529Z 2006/2106 05004KT P6SM SCT015 OVC060
     FM200800 03004KT P6SM OVC015
     FM201200 03005KT P6SM BKN025 BKN050
     FM201400 04003KT P6SM BKN050=



000
FTUS44 KJAN 200500
TAFHBG
TAF
KHBG 200529Z 2006/2106 04004KT P6SM -RA OVC008
     FM200900 02004KT 5SM BR VCSH OVC003
     FM201400 03007KT 5SM BR BKN007 OVC020
     FM201700 02006KT P6SM BKN015 OVC025
     FM202100 02005KT P6SM SCT030 OVC050=



000
FTUS44 KJAN 200500
TAFGLH
TAF
KGLH 200529Z 2006/2106 02006KT P6SM OVC025
     FM200800 02006KT P6SM OVC015
     FM201700 03007KT P6SM SCT020 OVC040=



000
FTUS44 KJAN 200400 AAA
TAFMEI
TAF AMD
KMEI 200418Z 2004/2024 03004KT P6SM -RA BKN009 BKN060 OVC090
     FM201100 01006KT 4SM BR BKN003 OVC015
     FM201500 03007KT P6SM SCT007 BKN015 OVC030
     FM202000 02005KT P6SM SCT030 BKN050=



000
FTUS44 KJAN 200100 AAA
TAFHBG
TAF AMD
KHBG 200105Z 2001/2024 36004KT 4SM -RA BKN008 OVC045
     FM201200 02006KT 5SM BR BKN007 OVC020
     FM201700 02006KT P6SM BKN015 OVC025
     FM202100 02005KT P6SM SCT030 OVC050=



000
FTUS44 KJAN 192300 RRA
TAFJAN
TAF
KJAN 192344Z 2000/2024 06005KT P6SM -RA BKN025 OVC050
     FM200300 05006KT 4SM -RA BKN007 OVC025
     FM200900 03005KT 5SM BR BKN003 OVC015
     FM201500 02007KT P6SM BKN015 OVC030
     FM202000 02008KT P6SM SCT030 BKN050=



000
FTUS44 KJAN 192300 RRA
TAFHBG
TAF
KHBG 192344Z 2000/2024 36004KT 5SM -RA BKN030 OVC060
     FM200500 03006KT 5SM -RA BKN007 OVC020
     FM201200 02006KT 5SM BR BKN007 OVC020
     FM201700 02006KT P6SM BKN015 OVC025
     FM202100 02005KT P6SM SCT030 OVC050=



000
FTUS44 KJAN 192300 RRA
TAFMEI
TAF
KMEI 192344Z 2000/2024 04007KT 6SM -RA SCT015 BKN030 OVC070
     FM200900 01006KT 4SM BR SCT003 BKN007 OVC020
     FM201200 01005KT 4SM BR BKN003 OVC015
     FM201500 03007KT P6SM SCT007 BKN015 OVC030
     FM202000 02005KT P6SM SCT030 BKN050=



000
FTUS44 KJAN 192300 RRA
TAFGWO
TAF
KGWO 192344Z 2000/2024 05004KT 6SM -RA SCT030 OVC080
     FM200800 02005KT 6SM BR OVC020
     FM201500 03005KT P6SM SCT020 BKN050=



000
FTUS44 KJAN 192300 RRA
TAFGLH
TAF
KGLH 192344Z 2000/2024 04009KT P6SM -RA SCT015 OVC070
     FM200400 02007KT 4SM BR VCSH SCT006 OVC015
     FM201200 03004KT P6SM OVC015
     FM201700 03006KT P6SM SCT020 OVC040=



000
FTUS44 KJAN 192000 AAA
TAFMEI
TAF AMD
KMEI 192026Z 1920/2018 04007KT P6SM -RA BKN030 OVC100
     FM200100 06006KT P6SM -RA BKN025
     FM200600 04005KT 3SM BR OVC007
     FM201500 02007KT P6SM OVC015=



000
FTUS44 KJAN 192000 AAA
TAFHBG
TAF AMD
KHBG 192026Z 1920/2018 36004KT P6SM -RA OVC028
     FM200100 06006KT P6SM -RA BKN025
     FM200500 03005KT 5SM BR OVC005
     FM201500 02007KT P6SM OVC015=



000
FTUS44 KJAN 191700
TAFJAN
TAF
KJAN 191720Z 1918/2018 07006KT P6SM -RA OVC028
     FM200000 05005KT P6SM -RA BKN025
     FM200600 04005KT 4SM BR OVC005
     FM201500 02007KT P6SM OVC015=



000
FTUS44 KJAN 191700
TAFGLH
TAF
KGLH 191720Z 1918/2018 04009KT P6SM -RA OVC025
     FM200400 03006KT P6SM BKN006 OVC015=



000
FTUS44 KJAN 191700
TAFMEI
TAF
KMEI 191720Z 1918/2018 07004KT P6SM OVC028
     FM192000 04005KT 5SM RA BR BKN008 OVC015
     FM200100 06006KT P6SM -RA BKN025
     FM200600 04005KT 3SM BR OVC007
     FM201500 02007KT P6SM OVC015=



000
FTUS44 KJAN 191700
TAFHBG
TAF
KHBG 191720Z 1918/2018 VRB04KT P6SM BKN022 OVC100
     FM192000 05005KT 2SM RA BR VCTS BKN007 OVC012CB
     FM200100 06006KT P6SM -RA BKN025
     FM200500 03005KT 5SM BR OVC005
     FM201500 02007KT P6SM OVC015=



000
FTUS44 KJAN 191700
TAFGWO
TAF
KGWO 191720Z 1918/2018 06006KT P6SM OVC110
     FM192000 03004KT 6SM -RA OVC015
     FM200400 03006KT P6SM BKN006 OVC025=



000
FTUS44 KJAN 191100
TAFGLH
TAF
KGLH 191120Z 1912/2012 06003KT P6SM SCT015 BKN040
     FM191500 04008KT P6SM -RA SCT015 BKN025
     FM191800 04006KT 6SM -RA OVC015
     FM200400 03006KT P6SM BKN006 OVC025=



000
FTUS44 KJAN 191100
TAFMEI
TAF
KMEI 191120Z 1912/2012 00000KT P6SM BKN030
     FM191500 04005KT P6SM -RA BKN020 OVC050
     FM192000 04005KT 5SM RA BR BKN008 OVC015
     FM200100 06006KT P6SM -RA BKN025
     FM200600 04005KT 3SM BR OVC007=



000
FTUS44 KJAN 191100
TAFHBG
TAF
KHBG 191120Z 1912/2012 05004KT P6SM VCSH OVC020
     FM191300 05004KT 6SM -RA OVC025
     FM192000 05005KT 2SM RA BR VCTS BKN007 OVC012CB
     FM200100 06006KT P6SM -RA BKN025
     FM200500 03005KT 5SM BR OVC005=



000
FTUS44 KJAN 191100
TAFJAN
TAF
KJAN 191120Z 1912/2012 05004KT P6SM OVC025
     FM191300 05006KT P6SM -RA OVC015
     FM191700 05005KT 4SM RA BKN008 OVC015
     FM200000 05005KT P6SM -RA BKN025
     FM200600 04005KT 4SM BR OVC005=



000
FTUS44 KJAN 191100
TAFGWO
TAF
KGWO 191120Z 1912/2012 06004KT P6SM BKN040
     FM191600 04005KT P6SM -RA SCT015 BKN030
     FM192000 03004KT 6SM -RA OVC015
     FM200400 03006KT P6SM BKN006 OVC025=



000
FTUS44 KJAN 190700 AAA
TAFHBG
TAF AMD
KHBG 190747Z 1908/2006 08004KT P6SM -RA SCT005 OVC020
     FM191200 05004KT P6SM VCSH OVC050
     FM191500 05004KT 6SM -RA OVC025
     FM192000 05005KT 2SM RA BR VCTS BKN007 OVC012CB=



000
FTUS44 KJAN 190500
TAFGLH
TAF
KGLH 190520Z 1906/2006 06003KT P6SM SCT015 BKN030
     FM191500 04008KT P6SM -RA SCT015 BKN025
     FM191800 04006KT 6SM -RA OVC015
     FM200100 03006KT P6SM BKN006 OVC050=



000
FTUS44 KJAN 190500
TAFJAN
TAF
KJAN 190520Z 1906/2006 12004KT P6SM BKN035 BKN120
     FM190900 05004KT P6SM OVC025
     FM191300 05006KT P6SM -RA OVC015
     FM191700 05005KT 4SM RA BKN008 OVC015=



000
FTUS44 KJAN 190500
TAFHBG
TAF
KHBG 190520Z 1906/2006 08004KT P6SM -RA BKN005 OVC025
     FM191200 05004KT P6SM VCSH OVC050
     FM191500 05004KT 6SM -RA OVC025
     FM192000 05005KT 2SM RA BR VCTS BKN007 OVC012CB=



000
FTUS44 KJAN 190500
TAFMEI
TAF
KMEI 190520Z 1906/2006 00000KT P6SM SCT030 BKN120
     FM191700 04005KT P6SM -RA BKN020 OVC050
     FM192000 04005KT 5SM RA BR BKN008 OVC015=



000
FTUS44 KJAN 190500
TAFGWO
TAF
KGWO 190520Z 1906/2006 06004KT P6SM BKN035
     FM191600 04005KT P6SM -RA SCT015 BKN030
     FM192000 03004KT 6SM -RA OVC015
     FM200200 03006KT P6SM BKN006 OVC050=



000
FTUS44 KJAN 182300 RRA
TAFGWO
TAF
KGWO 182353Z 1900/1924 06004KT P6SM BKN035
     FM191600 04005KT P6SM -RA SCT015 BKN030
     FM192000 03004KT 6SM -RA OVC015=



000
FTUS44 KJAN 182300 RRA
TAFMEI
TAF
KMEI 182353Z 1900/1924 00000KT P6SM SCT030 BKN120
     FM191600 04005KT P6SM -RA BKN020 OVC050
     FM192100 05005KT 6SM -RA BR BKN008 OVC015=



000
FTUS44 KJAN 182300 RRA
TAFJAN
TAF
KJAN 182353Z 1900/1924 12004KT P6SM SCT040 BKN120
     FM190900 05004KT P6SM OVC025
     FM191400 05006KT P6SM -RA OVC015
     FM192000 05005KT 4SM RA BKN008 OVC015=



000
FTUS44 KJAN 182300 RRA
TAFHBG
TAF
KHBG 182353Z 1900/1924 08004KT P6SM -RA FEW006 BKN040 OVC120
     FM191200 05004KT P6SM VCSH OVC050
     FM191500 05004KT 6SM -RA OVC025
     FM192000 06005KT 2SM RA BR VCTS BKN007 OVC012CB=



000
FTUS44 KJAN 182300 RRA
TAFGLH
TAF
KGLH 182353Z 1900/1924 06003KT P6SM SCT015 BKN030
     FM191500 04008KT P6SM -RA SCT015 BKN025
     FM191800 04006KT 6SM -RA OVC015=



000
FTUS44 KJAN 181700
TAFJAN
TAF
KJAN 181720Z 1818/1918 07005KT 6SM -RA BKN035 BKN045 OVC060
     FM182300 05004KT P6SM BKN100
     FM190900 05004KT P6SM OVC025
     FM191400 05006KT P6SM -RA OVC015=



000
FTUS44 KJAN 181700
TAFGLH
TAF
KGLH 181720Z 1818/1918 10005KT P6SM OVC029
     FM190000 04005KT P6SM OVC100
     FM190700 05007KT P6SM OVC025
     FM191600 05008KT P6SM -RA OVC015=



000
FTUS44 KJAN 181700
TAFGWO
TAF
KGWO 181720Z 1818/1918 08005KT P6SM OVC040
     FM182300 04004KT P6SM BKN050
     FM190400 05005KT P6SM BKN100
     FM190700 05007KT P6SM OVC025
     FM191600 05008KT P6SM -RA OVC015=



000
FTUS44 KJAN 181700
TAFMEI
TAF
KMEI 181720Z 1818/1918 02007KT P6SM BKN040 OVC110
     FM191500 04005KT P6SM VCSH OVC050=



000
FTUS44 KJAN 181700
TAFHBG
TAF
KHBG 181720Z 1818/1918 13009KT P6SM OVC110
     FM191200 05004KT P6SM VCSH OVC050
     FM191500 05004KT 6SM -RA OVC025=



000
FTUS44 KJAN 181100
TAFGWO
TAF
KGWO 181120Z 1812/1912 06004KT 6SM -RA BR BKN050 OVC070
     FM182300 04004KT P6SM BKN050
     FM190400 05005KT P6SM BKN100=



000
FTUS44 KJAN 181100
TAFMEI
TAF
KMEI 181120Z 1812/1912 VRB03KT P6SM SCT050 BKN100=



000
FTUS44 KJAN 181100
TAFGLH
TAF
KGLH 181120Z 1812/1912 05005KT 6SM -RA BR BKN040 OVC060
     FM181600 07005KT P6SM -RA OVC050
     FM190000 04005KT P6SM OVC100
     FM190700 05007KT P6SM OVC050=



000
FTUS44 KJAN 181100
TAFHBG
TAF
KHBG 181120Z 1812/1912 VRB03KT P6SM SCT050 BKN100=



000
FTUS44 KJAN 181100
TAFJAN
TAF
KJAN 181120Z 1812/1912 09004KT P6SM SCT050 BKN080
     FM181500 07003KT P6SM -RA BKN050 OVC070
     FM182300 05004KT P6SM BKN100=



000
FTUS44 KJAN 180500
TAFGWO
TAF
KGWO 180520Z 1806/1906 05005KT P6SM SCT050 BKN100
     FM181100 06004KT 6SM -RA BR BKN050 OVC070
     FM181500 04004KT P6SM SCT050=



000
FTUS44 KJAN 180500
TAFJAN
TAF
KJAN 180520Z 1806/1906 09004KT P6SM SCT050 BKN100
     FM181500 07003KT P6SM -RA BKN050 OVC070
     FM182000 05004KT P6SM SCT040=



000
FTUS44 KJAN 180500
TAFHBG
TAF
KHBG 180520Z 1806/1906 VRB03KT P6SM SCT050 SCT100=



000
FTUS44 KJAN 180500
TAFGLH
TAF
KGLH 180520Z 1806/1906 05005KT P6SM SCT050 BKN100
     FM180900 05005KT 6SM -RA BR BKN040 OVC060
     FM181600 07005KT P6SM SCT050=



000
FTUS44 KJAN 180500
TAFMEI
TAF
KMEI 180520Z 1806/1906 VRB03KT P6SM SCT050 SCT100=



000
FTUS44 KJAN 172300
TAFHBG
TAF
KHBG 172339Z 1800/1824 VRB03KT P6SM SCT100
     FM181500 00000KT P6SM SCT050 BKN100=



000
FTUS44 KJAN 172300
TAFGLH
TAF
KGLH 172339Z 1800/1824 05005KT P6SM SCT050 BKN100
     FM181000 05005KT 6SM -RA BR BKN040 OVC060
     FM181500 10005KT P6SM SCT030 OVC050=



000
FTUS44 KJAN 172300
TAFGWO
TAF
KGWO 172339Z 1800/1824 05005KT P6SM SCT050 BKN100
     FM181000 06004KT 6SM -RA BR BKN040 OVC060
     FM181600 13004KT P6SM SCT030 OVC050=



000
FTUS44 KJAN 172300
TAFMEI
TAF
KMEI 172339Z 1800/1824 VRB03KT P6SM SCT100
     FM181500 06004KT P6SM SCT050 BKN100=



000
FTUS44 KJAN 172300
TAFJAN
TAF
KJAN 172339Z 1800/1824 VRB03KT P6SM BKN100
     FM181000 09004KT P6SM SCT050 OVC100
     FM181500 VRB03KT P6SM -RA BKN040 OVC060=



000
FTUS44 KJAN 171700
TAFGWO
TAF
KGWO 171720Z 1718/1818 04005KT P6SM BKN250
     FM180000 05003KT P6SM BKN100
     FM181100 04005KT P6SM -RA OVC060
     FM181500 10005KT P6SM OVC050=



000
FTUS44 KJAN 171700
TAFHBG
TAF
KHBG 171720Z 1718/1818 04007KT P6SM BKN250
     FM180000 00000KT P6SM SCT070 BKN250
     FM181500 00000KT P6SM OVC250=



000
FTUS44 KJAN 171700
TAFJAN
TAF
KJAN 171720Z 1718/1818 36005KT P6SM FEW050 BKN250
     FM180000 00000KT P6SM BKN070
     FM181500 09004KT P6SM OVC100=



000
FTUS44 KJAN 171700
TAFGLH
TAF
KGLH 171720Z 1718/1818 04006KT P6SM BKN250
     FM180000 05004KT P6SM BKN100
     FM181000 04006KT 6SM -RA BR OVC060
     FM181500 10005KT P6SM OVC050=



000
FTUS44 KJAN 171700
TAFMEI
TAF
KMEI 171720Z 1718/1818 03009KT P6SM BKN250
     FM180000 00000KT P6SM SCT070 BKN250
     FM181500 06004KT P6SM BKN100=



    US Dept of Commerce
    National Oceanic and Atmospheric Administration
    National Weather Service
    1325 East West Highway
    Silver Spring, MD 20910
    Page Author: NWS Internet Services Team
Disclaimer
Information Quality
Credits
Glossary
Privacy Policy
Freedom of Information Act (FOIA)
About Us
Career Opportunities